sensor_id;sensor_type;location;lat;lon;timestamp;pressure;altitude;pressure_sealevel;temperature
76476;BMP280;65308;50.078;14.854;2023-04-08T00:00:25;99249.84;;;5.62
76476;BMP280;65308;50.078;14.854;2023-04-08T00:02:52;99250.03;;;5.75
76476;BMP280;65308;50.078;14.854;2023-04-08T00:05:19;99249.69;;;5.72
76476;BMP280;65308;50.078;14.854;2023-04-08T00:07:48;99248.63;;;5.66
76476;BMP280;65308;50.078;14.854;2023-04-08T00:10:14;99249.56;;;5.80
76476;BMP280;65308;50.078;14.854;2023-04-08T00:12:41;99247.97;;;5.89
76476;BMP280;65308;50.078;14.854;2023-04-08T00:15:08;99250.25;;;5.87
76476;BMP280;65308;50.078;14.854;2023-04-08T00:17:35;99251.41;;;5.86
76476;BMP280;65308;50.078;14.854;2023-04-08T00:20:01;99241.91;;;5.58
76476;BMP280;65308;50.078;14.854;2023-04-08T00:22:28;99236.56;;;5.28
76476;BMP280;65308;50.078;14.854;2023-04-08T00:24:57;99238.84;;;5.29
76476;BMP280;65308;50.078;14.854;2023-04-08T00:27:24;99244.66;;;5.17
76476;BMP280;65308;50.078;14.854;2023-04-08T00:29:50;99241.84;;;5.31
76476;BMP280;65308;50.078;14.854;2023-04-08T00:32:17;99246.03;;;4.98
76476;BMP280;65308;50.078;14.854;2023-04-08T00:34:44;99245.78;;;5.19
76476;BMP280;65308;50.078;14.854;2023-04-08T00:37:11;99252.50;;;5.58
76476;BMP280;65308;50.078;14.854;2023-04-08T00:39:37;99251.59;;;5.72
76476;BMP280;65308;50.078;14.854;2023-04-08T00:42:05;99252.31;;;5.76
76476;BMP280;65308;50.078;14.854;2023-04-08T00:44:32;99247.13;;;5.65
76476;BMP280;65308;50.078;14.854;2023-04-08T00:46:59;99248.19;;;5.71
76476;BMP280;65308;50.078;14.854;2023-04-08T00:49:26;99255.44;;;5.67
76476;BMP280;65308;50.078;14.854;2023-04-08T00:51:53;99252.22;;;5.80
76476;BMP280;65308;50.078;14.854;2023-04-08T00:54:20;99252.91;;;5.87
76476;BMP280;65308;50.078;14.854;2023-04-08T00:56:47;99248.16;;;6.02
76476;BMP280;65308;50.078;14.854;2023-04-08T00:59:16;99258.59;;;5.89
76476;BMP280;65308;50.078;14.854;2023-04-08T01:01:49;99246.31;;;5.99
76476;BMP280;65308;50.078;14.854;2023-04-08T01:04:25;99255.38;;;6.02
76476;BMP280;65308;50.078;14.854;2023-04-08T01:06:58;99251.44;;;6.10
76476;BMP280;65308;50.078;14.854;2023-04-08T01:09:31;99251.75;;;5.88
76476;BMP280;65308;50.078;14.854;2023-04-08T01:12:00;99245.34;;;5.86
76476;BMP280;65308;50.078;14.854;2023-04-08T01:14:31;99251.63;;;5.68
76476;BMP280;65308;50.078;14.854;2023-04-08T01:17:01;99257.00;;;5.92
76476;BMP280;65308;50.078;14.854;2023-04-08T01:19:29;99254.25;;;5.72
76476;BMP280;65308;50.078;14.854;2023-04-08T01:22:04;99248.38;;;5.54
76476;BMP280;65308;50.078;14.854;2023-04-08T01:24:38;99247.78;;;5.42
76476;BMP280;65308;50.078;14.854;2023-04-08T01:27:09;99253.47;;;5.44
76476;BMP280;65308;50.078;14.854;2023-04-08T01:29:37;99250.94;;;5.34
76476;BMP280;65308;50.078;14.854;2023-04-08T01:32:05;99250.72;;;5.17
76476;BMP280;65308;50.078;14.854;2023-04-08T01:34:33;99251.91;;;5.13
76476;BMP280;65308;50.078;14.854;2023-04-08T01:37:01;99257.19;;;5.16
76476;BMP280;65308;50.078;14.854;2023-04-08T01:39:28;99252.25;;;5.18
76476;BMP280;65308;50.078;14.854;2023-04-08T01:41:56;99255.97;;;5.24
76476;BMP280;65308;50.078;14.854;2023-04-08T01:44:25;99246.22;;;5.14
76476;BMP280;65308;50.078;14.854;2023-04-08T01:46:53;99250.81;;;5.44
76476;BMP280;65308;50.078;14.854;2023-04-08T01:49:21;99261.22;;;5.62
76476;BMP280;65308;50.078;14.854;2023-04-08T01:51:50;99255.31;;;5.47
76476;BMP280;65308;50.078;14.854;2023-04-08T01:54:19;99259.09;;;5.50
76476;BMP280;65308;50.078;14.854;2023-04-08T01:56:45;99257.69;;;5.69
76476;BMP280;65308;50.078;14.854;2023-04-08T01:59:13;99255.59;;;5.87
76476;BMP280;65308;50.078;14.854;2023-04-08T02:01:51;99254.31;;;5.96
76476;BMP280;65308;50.078;14.854;2023-04-08T02:04:21;99255.28;;;6.05
76476;BMP280;65308;50.078;14.854;2023-04-08T02:06:49;99259.38;;;6.13
76476;BMP280;65308;50.078;14.854;2023-04-08T02:09:15;99261.13;;;6.24
76476;BMP280;65308;50.078;14.854;2023-04-08T02:11:42;99251.66;;;5.96
76476;BMP280;65308;50.078;14.854;2023-04-08T02:14:08;99258.94;;;5.91
76476;BMP280;65308;50.078;14.854;2023-04-08T02:16:39;99259.22;;;5.97
76476;BMP280;65308;50.078;14.854;2023-04-08T02:19:13;99263.38;;;5.98
76476;BMP280;65308;50.078;14.854;2023-04-08T02:21:43;99267.34;;;6.13
76476;BMP280;65308;50.078;14.854;2023-04-08T02:24:13;99272.22;;;6.42
76476;BMP280;65308;50.078;14.854;2023-04-08T02:26:41;99260.25;;;6.54
76476;BMP280;65308;50.078;14.854;2023-04-08T02:29:11;99261.53;;;6.69
76476;BMP280;65308;50.078;14.854;2023-04-08T02:31:40;99265.72;;;6.47
76476;BMP280;65308;50.078;14.854;2023-04-08T02:34:09;99267.59;;;6.70
76476;BMP280;65308;50.078;14.854;2023-04-08T02:36:37;99262.47;;;6.79
76476;BMP280;65308;50.078;14.854;2023-04-08T02:39:05;99264.25;;;6.66
76476;BMP280;65308;50.078;14.854;2023-04-08T02:41:32;99267.06;;;6.55
76476;BMP280;65308;50.078;14.854;2023-04-08T02:43:59;99269.34;;;6.33
76476;BMP280;65308;50.078;14.854;2023-04-08T02:46:25;99271.63;;;6.31
76476;BMP280;65308;50.078;14.854;2023-04-08T02:48:52;99275.38;;;6.37
76476;BMP280;65308;50.078;14.854;2023-04-08T02:51:20;99264.50;;;6.51
76476;BMP280;65308;50.078;14.854;2023-04-08T02:53:47;99270.66;;;6.45
76476;BMP280;65308;50.078;14.854;2023-04-08T02:56:13;99267.28;;;6.40
76476;BMP280;65308;50.078;14.854;2023-04-08T02:58:40;99268.38;;;6.47
76476;BMP280;65308;50.078;14.854;2023-04-08T03:01:07;99266.84;;;6.46
76476;BMP280;65308;50.078;14.854;2023-04-08T03:03:34;99267.38;;;6.37
76476;BMP280;65308;50.078;14.854;2023-04-08T03:06:02;99273.69;;;6.20
76476;BMP280;65308;50.078;14.854;2023-04-08T03:08:30;99276.81;;;6.14
76476;BMP280;65308;50.078;14.854;2023-04-08T03:10:57;99278.78;;;6.10
76476;BMP280;65308;50.078;14.854;2023-04-08T03:13:23;99271.97;;;6.09
76476;BMP280;65308;50.078;14.854;2023-04-08T03:15:50;99277.91;;;6.17
76476;BMP280;65308;50.078;14.854;2023-04-08T03:18:17;99286.78;;;6.34
76476;BMP280;65308;50.078;14.854;2023-04-08T03:20:44;99283.97;;;6.45
76476;BMP280;65308;50.078;14.854;2023-04-08T03:23:10;99282.50;;;6.63
76476;BMP280;65308;50.078;14.854;2023-04-08T03:25:38;99292.56;;;6.76
76476;BMP280;65308;50.078;14.854;2023-04-08T03:28:05;99293.28;;;6.80
76476;BMP280;65308;50.078;14.854;2023-04-08T03:30:32;99285.63;;;6.82
76476;BMP280;65308;50.078;14.854;2023-04-08T03:32:58;99292.28;;;6.94
76476;BMP280;65308;50.078;14.854;2023-04-08T03:35:25;99290.47;;;6.87
76476;BMP280;65308;50.078;14.854;2023-04-08T03:37:52;99288.78;;;6.97
76476;BMP280;65308;50.078;14.854;2023-04-08T03:40:19;99289.41;;;7.04
76476;BMP280;65308;50.078;14.854;2023-04-08T03:42:47;99285.78;;;6.95
76476;BMP280;65308;50.078;14.854;2023-04-08T03:45:14;99284.47;;;6.83
76476;BMP280;65308;50.078;14.854;2023-04-08T03:47:41;99274.75;;;6.96
76476;BMP280;65308;50.078;14.854;2023-04-08T03:50:08;99288.66;;;7.04
76476;BMP280;65308;50.078;14.854;2023-04-08T03:52:35;99287.34;;;7.12
76476;BMP280;65308;50.078;14.854;2023-04-08T03:55:02;99286.00;;;7.24
76476;BMP280;65308;50.078;14.854;2023-04-08T03:57:28;99285.59;;;7.25
76476;BMP280;65308;50.078;14.854;2023-04-08T03:59:56;99287.53;;;7.25
76476;BMP280;65308;50.078;14.854;2023-04-08T04:02:23;99288.94;;;7.29
76476;BMP280;65308;50.078;14.854;2023-04-08T04:04:50;99294.00;;;7.44
76476;BMP280;65308;50.078;14.854;2023-04-08T04:07:17;99295.09;;;7.46
76476;BMP280;65308;50.078;14.854;2023-04-08T04:09:44;99291.19;;;7.31
76476;BMP280;65308;50.078;14.854;2023-04-08T04:12:10;99303.69;;;7.14
76476;BMP280;65308;50.078;14.854;2023-04-08T04:14:37;99303.50;;;6.81
76476;BMP280;65308;50.078;14.854;2023-04-08T04:17:05;99310.13;;;6.93
76476;BMP280;65308;50.078;14.854;2023-04-08T04:19:32;99308.38;;;6.63
76476;BMP280;65308;50.078;14.854;2023-04-08T04:21:58;99318.78;;;6.77
76476;BMP280;65308;50.078;14.854;2023-04-08T04:24:25;99317.16;;;6.60
76476;BMP280;65308;50.078;14.854;2023-04-08T04:26:52;99312.50;;;6.64
76476;BMP280;65308;50.078;14.854;2023-04-08T04:29:19;99313.81;;;6.56
76476;BMP280;65308;50.078;14.854;2023-04-08T04:31:45;99314.13;;;6.34
76476;BMP280;65308;50.078;14.854;2023-04-08T04:34:13;99324.06;;;6.30
76476;BMP280;65308;50.078;14.854;2023-04-08T04:36:40;99320.56;;;6.37
76476;BMP280;65308;50.078;14.854;2023-04-08T04:39:07;99327.47;;;6.31
76476;BMP280;65308;50.078;14.854;2023-04-08T04:41:34;99333.28;;;6.22
76476;BMP280;65308;50.078;14.854;2023-04-08T04:44:05;99329.53;;;6.47
76476;BMP280;65308;50.078;14.854;2023-04-08T04:46:32;99330.31;;;6.44
76476;BMP280;65308;50.078;14.854;2023-04-08T04:48:58;99341.94;;;6.53
76476;BMP280;65308;50.078;14.854;2023-04-08T04:51:26;99338.44;;;6.60
76476;BMP280;65308;50.078;14.854;2023-04-08T04:53:53;99341.94;;;6.53
76476;BMP280;65308;50.078;14.854;2023-04-08T04:56:20;99346.16;;;6.51
76476;BMP280;65308;50.078;14.854;2023-04-08T04:58:46;99341.75;;;6.68
76476;BMP280;65308;50.078;14.854;2023-04-08T05:01:13;99348.91;;;6.71
76476;BMP280;65308;50.078;14.854;2023-04-08T05:03:39;99355.16;;;6.60
76476;BMP280;65308;50.078;14.854;2023-04-08T05:06:06;99357.84;;;6.57
76476;BMP280;65308;50.078;14.854;2023-04-08T05:08:34;99367.88;;;6.46
76476;BMP280;65308;50.078;14.854;2023-04-08T05:11:01;99364.72;;;6.54
76476;BMP280;65308;50.078;14.854;2023-04-08T05:13:28;99359.81;;;6.76
76476;BMP280;65308;50.078;14.854;2023-04-08T05:15:54;99362.03;;;6.81
76476;BMP280;65308;50.078;14.854;2023-04-08T05:18:21;99373.22;;;6.96
76476;BMP280;65308;50.078;14.854;2023-04-08T05:20:48;99370.38;;;6.83
76476;BMP280;65308;50.078;14.854;2023-04-08T05:23:14;99371.88;;;6.84
76476;BMP280;65308;50.078;14.854;2023-04-08T05:25:42;99366.81;;;6.90
76476;BMP280;65308;50.078;14.854;2023-04-08T05:28:09;99367.31;;;6.85
76476;BMP280;65308;50.078;14.854;2023-04-08T05:30:36;99366.72;;;6.74
76476;BMP280;65308;50.078;14.854;2023-04-08T05:33:03;99370.25;;;6.91
76476;BMP280;65308;50.078;14.854;2023-04-08T05:35:29;99374.34;;;6.95
76476;BMP280;65308;50.078;14.854;2023-04-08T05:37:56;99380.44;;;6.96
76476;BMP280;65308;50.078;14.854;2023-04-08T05:40:25;99389.63;;;7.15
76476;BMP280;65308;50.078;14.854;2023-04-08T05:42:54;99386.53;;;6.96
76476;BMP280;65308;50.078;14.854;2023-04-08T05:45:21;99389.41;;;7.05
76476;BMP280;65308;50.078;14.854;2023-04-08T05:47:48;99393.28;;;7.24
76476;BMP280;65308;50.078;14.854;2023-04-08T05:50:14;99391.34;;;7.25
76476;BMP280;65308;50.078;14.854;2023-04-08T05:52:42;99393.03;;;7.39
76476;BMP280;65308;50.078;14.854;2023-04-08T05:55:11;99392.06;;;7.49
76476;BMP280;65308;50.078;14.854;2023-04-08T05:57:38;99400.16;;;7.62
76476;BMP280;65308;50.078;14.854;2023-04-08T06:00:08;99401.84;;;7.56
76476;BMP280;65308;50.078;14.854;2023-04-08T06:02:35;99403.19;;;7.64
76476;BMP280;65308;50.078;14.854;2023-04-08T06:05:02;99395.25;;;7.80
76476;BMP280;65308;50.078;14.854;2023-04-08T06:07:29;99391.97;;;7.92
76476;BMP280;65308;50.078;14.854;2023-04-08T06:09:56;99392.84;;;8.06
76476;BMP280;65308;50.078;14.854;2023-04-08T06:12:23;99398.56;;;8.04
76476;BMP280;65308;50.078;14.854;2023-04-08T06:14:57;99393.03;;;8.15
76476;BMP280;65308;50.078;14.854;2023-04-08T06:17:29;99402.94;;;8.14
76476;BMP280;65308;50.078;14.854;2023-04-08T06:19:56;99402.03;;;8.37
76476;BMP280;65308;50.078;14.854;2023-04-08T06:22:25;99406.41;;;8.47
76476;BMP280;65308;50.078;14.854;2023-04-08T06:24:52;99413.41;;;8.58
76476;BMP280;65308;50.078;14.854;2023-04-08T06:27:19;99408.25;;;8.51
76476;BMP280;65308;50.078;14.854;2023-04-08T06:29:46;99420.25;;;8.75
76476;BMP280;65308;50.078;14.854;2023-04-08T06:32:12;99421.84;;;8.89
76476;BMP280;65308;50.078;14.854;2023-04-08T06:34:43;99420.72;;;9.03
76476;BMP280;65308;50.078;14.854;2023-04-08T06:37:10;99421.09;;;9.17
76476;BMP280;65308;50.078;14.854;2023-04-08T06:39:37;99417.75;;;9.30
76476;BMP280;65308;50.078;14.854;2023-04-08T06:42:04;99421.66;;;9.41
76476;BMP280;65308;50.078;14.854;2023-04-08T06:44:35;99422.63;;;9.48
76476;BMP280;65308;50.078;14.854;2023-04-08T06:47:02;99421.59;;;9.58
76476;BMP280;65308;50.078;14.854;2023-04-08T06:49:28;99426.06;;;9.61
76476;BMP280;65308;50.078;14.854;2023-04-08T06:51:57;99428.53;;;9.68
76476;BMP280;65308;50.078;14.854;2023-04-08T06:54:23;99431.78;;;9.76
76476;BMP280;65308;50.078;14.854;2023-04-08T06:56:50;99428.66;;;9.77
76476;BMP280;65308;50.078;14.854;2023-04-08T06:59:16;99438.69;;;9.90
76476;BMP280;65308;50.078;14.854;2023-04-08T07:01:47;99440.78;;;9.82
76476;BMP280;65308;50.078;14.854;2023-04-08T07:04:15;99447.38;;;9.35
76476;BMP280;65308;50.078;14.854;2023-04-08T07:06:50;99443.28;;;8.53
76476;BMP280;65308;50.078;14.854;2023-04-08T07:09:26;99459.06;;;8.07
76476;BMP280;65308;50.078;14.854;2023-04-08T07:12:08;99451.34;;;8.13
76476;BMP280;65308;50.078;14.854;2023-04-08T07:14:34;99459.41;;;7.02
76476;BMP280;65308;50.078;14.854;2023-04-08T07:17:01;99463.00;;;6.89
76476;BMP280;65308;50.078;14.854;2023-04-08T07:19:32;99464.84;;;7.19
76476;BMP280;65308;50.078;14.854;2023-04-08T07:22:03;99468.31;;;7.39
76476;BMP280;65308;50.078;14.854;2023-04-08T07:24:45;99474.38;;;7.40
76476;BMP280;65308;50.078;14.854;2023-04-08T07:27:14;99470.78;;;7.50
76476;BMP280;65308;50.078;14.854;2023-04-08T07:29:40;99473.72;;;7.36
76476;BMP280;65308;50.078;14.854;2023-04-08T07:32:07;99477.47;;;7.82
76476;BMP280;65308;50.078;14.854;2023-04-08T07:34:34;99487.50;;;7.74
76476;BMP280;65308;50.078;14.854;2023-04-08T07:37:01;99478.47;;;6.97
76476;BMP280;65308;50.078;14.854;2023-04-08T07:39:28;99488.00;;;7.22
76476;BMP280;65308;50.078;14.854;2023-04-08T07:41:56;99493.53;;;7.54
76476;BMP280;65308;50.078;14.854;2023-04-08T07:44:22;99489.75;;;7.32
76476;BMP280;65308;50.078;14.854;2023-04-08T07:46:49;99498.31;;;7.20
76476;BMP280;65308;50.078;14.854;2023-04-08T07:49:16;99495.06;;;7.32
76476;BMP280;65308;50.078;14.854;2023-04-08T07:51:43;99497.97;;;7.41
76476;BMP280;65308;50.078;14.854;2023-04-08T07:54:11;99504.03;;;6.91
76476;BMP280;65308;50.078;14.854;2023-04-08T07:56:43;99509.94;;;6.48
76476;BMP280;65308;50.078;14.854;2023-04-08T07:59:11;99508.59;;;6.63
76476;BMP280;65308;50.078;14.854;2023-04-08T08:01:38;99515.00;;;6.39
76476;BMP280;65308;50.078;14.854;2023-04-08T08:04:05;99513.19;;;6.29
76476;BMP280;65308;50.078;14.854;2023-04-08T08:06:32;99512.31;;;6.39
76476;BMP280;65308;50.078;14.854;2023-04-08T08:08:59;99525.41;;;6.57
76476;BMP280;65308;50.078;14.854;2023-04-08T08:11:37;99514.13;;;6.49
76476;BMP280;65308;50.078;14.854;2023-04-08T08:14:05;99525.44;;;6.23
76476;BMP280;65308;50.078;14.854;2023-04-08T08:19:21;99522.75;;;6.57
76476;BMP280;65308;50.078;14.854;2023-04-08T08:21:47;99537.47;;;6.34
76476;BMP280;65308;50.078;14.854;2023-04-08T08:24:14;99537.34;;;6.11
76476;BMP280;65308;50.078;14.854;2023-04-08T08:26:41;99542.41;;;5.94
76476;BMP280;65308;50.078;14.854;2023-04-08T08:29:09;99539.13;;;6.21
76476;BMP280;65308;50.078;14.854;2023-04-08T08:31:37;99548.06;;;6.38
76476;BMP280;65308;50.078;14.854;2023-04-08T08:34:15;99540.88;;;5.97
76476;BMP280;65308;50.078;14.854;2023-04-08T08:36:44;99558.19;;;6.16
76476;BMP280;65308;50.078;14.854;2023-04-08T08:39:10;99546.91;;;6.39
76476;BMP280;65308;50.078;14.854;2023-04-08T08:41:59;99547.44;;;6.57
76476;BMP280;65308;50.078;14.854;2023-04-08T08:44:51;99550.38;;;6.67
76476;BMP280;65308;50.078;14.854;2023-04-08T08:47:36;99556.41;;;6.71
76476;BMP280;65308;50.078;14.854;2023-04-08T08:50:11;99557.41;;;6.80
76476;BMP280;65308;50.078;14.854;2023-04-08T08:52:47;99560.28;;;7.20
76476;BMP280;65308;50.078;14.854;2023-04-08T08:55:15;99569.00;;;7.24
76476;BMP280;65308;50.078;14.854;2023-04-08T08:57:45;99571.19;;;7.02
76476;BMP280;65308;50.078;14.854;2023-04-08T09:00:14;99576.53;;;7.53
76476;BMP280;65308;50.078;14.854;2023-04-08T09:02:44;99573.31;;;7.89
76476;BMP280;65308;50.078;14.854;2023-04-08T09:10:28;99581.19;;;8.16
76476;BMP280;65308;50.078;14.854;2023-04-08T09:12:55;99584.66;;;8.33
76476;BMP280;65308;50.078;14.854;2023-04-08T09:15:23;99594.66;;;8.85
76476;BMP280;65308;50.078;14.854;2023-04-08T09:17:52;99587.66;;;8.91
76476;BMP280;65308;50.078;14.854;2023-04-08T09:20:19;99595.81;;;8.47
76476;BMP280;65308;50.078;14.854;2023-04-08T09:22:57;99595.63;;;8.38
76476;BMP280;65308;50.078;14.854;2023-04-08T09:25:30;99597.00;;;8.27
76476;BMP280;65308;50.078;14.854;2023-04-08T09:28:00;99594.22;;;8.30
76476;BMP280;65308;50.078;14.854;2023-04-08T09:30:31;99599.50;;;8.74
76476;BMP280;65308;50.078;14.854;2023-04-08T09:32:58;99602.78;;;8.81
76476;BMP280;65308;50.078;14.854;2023-04-08T09:35:26;99588.38;;;8.75
76476;BMP280;65308;50.078;14.854;2023-04-08T09:38:13;99591.22;;;8.68
76476;BMP280;65308;50.078;14.854;2023-04-08T09:46:01;99595.75;;;7.88
76476;BMP280;65308;50.078;14.854;2023-04-08T09:48:34;99589.56;;;7.20
76476;BMP280;65308;50.078;14.854;2023-04-08T09:51:07;99601.84;;;7.14
76476;BMP280;65308;50.078;14.854;2023-04-08T09:53:37;99602.66;;;7.07
76476;BMP280;65308;50.078;14.854;2023-04-08T09:56:07;99595.19;;;6.99
76476;BMP280;65308;50.078;14.854;2023-04-08T09:58:40;99607.56;;;7.13
76476;BMP280;65308;50.078;14.854;2023-04-08T10:01:13;99608.53;;;7.26
76476;BMP280;65308;50.078;14.854;2023-04-08T10:03:46;99614.81;;;7.63
76476;BMP280;65308;50.078;14.854;2023-04-08T10:06:14;99603.59;;;7.98
76476;BMP280;65308;50.078;14.854;2023-04-08T10:08:42;99608.88;;;8.22
76476;BMP280;65308;50.078;14.854;2023-04-08T10:11:10;99613.03;;;8.23
76476;BMP280;65308;50.078;14.854;2023-04-08T10:13:36;99617.28;;;8.20
76476;BMP280;65308;50.078;14.854;2023-04-08T10:18:55;99617.66;;;8.19
76476;BMP280;65308;50.078;14.854;2023-04-08T10:21:36;99624.88;;;8.42
76476;BMP280;65308;50.078;14.854;2023-04-08T10:24:07;99626.31;;;8.46
76476;BMP280;65308;50.078;14.854;2023-04-08T10:26:39;99622.25;;;8.18
76476;BMP280;65308;50.078;14.854;2023-04-08T10:29:34;99631.78;;;8.39
76476;BMP280;65308;50.078;14.854;2023-04-08T10:32:00;99626.06;;;7.97
76476;BMP280;65308;50.078;14.854;2023-04-08T10:34:29;99625.75;;;7.95
76476;BMP280;65308;50.078;14.854;2023-04-08T10:36:56;99631.75;;;7.76
76476;BMP280;65308;50.078;14.854;2023-04-08T10:39:29;99634.63;;;7.62
76476;BMP280;65308;50.078;14.854;2023-04-08T10:42:01;99638.59;;;7.77
76476;BMP280;65308;50.078;14.854;2023-04-08T10:44:32;99639.09;;;7.92
76476;BMP280;65308;50.078;14.854;2023-04-08T10:46:59;99634.28;;;8.07
76476;BMP280;65308;50.078;14.854;2023-04-08T10:49:33;99634.28;;;8.50
76476;BMP280;65308;50.078;14.854;2023-04-08T10:52:00;99628.72;;;8.61
76476;BMP280;65308;50.078;14.854;2023-04-08T10:54:31;99631.78;;;8.19
76476;BMP280;65308;50.078;14.854;2023-04-08T10:56:58;99633.34;;;8.57
76476;BMP280;65308;50.078;14.854;2023-04-08T10:59:30;99630.88;;;8.66
76476;BMP280;65308;50.078;14.854;2023-04-08T11:01:57;99630.63;;;8.60
76476;BMP280;65308;50.078;14.854;2023-04-08T11:04:26;99627.47;;;8.65
76476;BMP280;65308;50.078;14.854;2023-04-08T11:06:54;99635.78;;;8.51
76476;BMP280;65308;50.078;14.854;2023-04-08T11:09:21;99635.72;;;8.55
76476;BMP280;65308;50.078;14.854;2023-04-08T11:11:47;99627.84;;;8.04
76476;BMP280;65308;50.078;14.854;2023-04-08T11:14:15;99635.69;;;8.15
76476;BMP280;65308;50.078;14.854;2023-04-08T11:16:46;99637.06;;;7.99
76476;BMP280;65308;50.078;14.854;2023-04-08T11:19:13;99644.88;;;7.63
76476;BMP280;65308;50.078;14.854;2023-04-08T11:21:40;99643.97;;;7.19
76476;BMP280;65308;50.078;14.854;2023-04-08T11:24:12;99645.25;;;7.38
76476;BMP280;65308;50.078;14.854;2023-04-08T11:26:40;99647.66;;;7.56
76476;BMP280;65308;50.078;14.854;2023-04-08T11:29:09;99644.94;;;7.33
76476;BMP280;65308;50.078;14.854;2023-04-08T11:31:39;99651.50;;;7.28
76476;BMP280;65308;50.078;14.854;2023-04-08T11:34:07;99651.31;;;7.12
76476;BMP280;65308;50.078;14.854;2023-04-08T11:36:34;99652.50;;;7.07
76476;BMP280;65308;50.078;14.854;2023-04-08T11:39:06;99649.19;;;6.99
76476;BMP280;65308;50.078;14.854;2023-04-08T11:41:37;99658.47;;;6.84
76476;BMP280;65308;50.078;14.854;2023-04-08T11:44:04;99660.09;;;6.40
76476;BMP280;65308;50.078;14.854;2023-04-08T11:46:32;99655.72;;;6.60
76476;BMP280;65308;50.078;14.854;2023-04-08T11:49:00;99654.84;;;6.67
76476;BMP280;65308;50.078;14.854;2023-04-08T11:51:27;99659.38;;;6.74
76476;BMP280;65308;50.078;14.854;2023-04-08T11:53:54;99660.00;;;6.85
76476;BMP280;65308;50.078;14.854;2023-04-08T11:56:22;99662.09;;;6.67
76476;BMP280;65308;50.078;14.854;2023-04-08T11:58:50;99652.13;;;6.40
76476;BMP280;65308;50.078;14.854;2023-04-08T12:01:17;99666.47;;;6.46
76476;BMP280;65308;50.078;14.854;2023-04-08T12:03:57;99662.00;;;6.39
76476;BMP280;65308;50.078;14.854;2023-04-08T12:06:24;99671.03;;;6.46
76476;BMP280;65308;50.078;14.854;2023-04-08T12:08:52;99665.75;;;6.42
76476;BMP280;65308;50.078;14.854;2023-04-08T12:11:19;99667.97;;;6.51
76476;BMP280;65308;50.078;14.854;2023-04-08T12:13:46;99659.19;;;6.54
76476;BMP280;65308;50.078;14.854;2023-04-08T12:16:16;99661.03;;;6.95
76476;BMP280;65308;50.078;14.854;2023-04-08T12:18:43;99658.84;;;7.17
76476;BMP280;65308;50.078;14.854;2023-04-08T12:21:09;99661.41;;;7.24
76476;BMP280;65308;50.078;14.854;2023-04-08T12:23:36;99668.53;;;7.34
76476;BMP280;65308;50.078;14.854;2023-04-08T12:26:03;99677.09;;;7.72
76476;BMP280;65308;50.078;14.854;2023-04-08T12:28:29;99675.88;;;7.50
76476;BMP280;65308;50.078;14.854;2023-04-08T12:30:56;99683.31;;;7.89
76476;BMP280;65308;50.078;14.854;2023-04-08T12:33:24;99687.91;;;8.12
76476;BMP280;65308;50.078;14.854;2023-04-08T12:35:51;99681.19;;;8.04
76476;BMP280;65308;50.078;14.854;2023-04-08T12:38:18;99681.47;;;7.86
76476;BMP280;65308;50.078;14.854;2023-04-08T12:40:45;99671.47;;;7.90
76476;BMP280;65308;50.078;14.854;2023-04-08T12:43:11;99692.25;;;8.46
76476;BMP280;65308;50.078;14.854;2023-04-08T12:45:38;99681.03;;;8.35
76476;BMP280;65308;50.078;14.854;2023-04-08T12:48:05;99675.09;;;8.47
76476;BMP280;65308;50.078;14.854;2023-04-08T12:50:33;99681.44;;;8.33
76476;BMP280;65308;50.078;14.854;2023-04-08T12:53:00;99679.00;;;8.42
76476;BMP280;65308;50.078;14.854;2023-04-08T12:55:27;99684.88;;;8.93
76476;BMP280;65308;50.078;14.854;2023-04-08T12:57:53;99687.72;;;9.23
76476;BMP280;65308;50.078;14.854;2023-04-08T13:00:20;99685.22;;;8.96
76476;BMP280;65308;50.078;14.854;2023-04-08T13:02:47;99689.66;;;9.02
76476;BMP280;65308;50.078;14.854;2023-04-08T13:05:14;99685.16;;;9.35
76476;BMP280;65308;50.078;14.854;2023-04-08T13:07:43;99681.59;;;9.06
76476;BMP280;65308;50.078;14.854;2023-04-08T13:10:11;99686.03;;;9.12
76476;BMP280;65308;50.078;14.854;2023-04-08T13:12:37;99681.03;;;9.14
76476;BMP280;65308;50.078;14.854;2023-04-08T13:15:09;99686.09;;;9.25
76476;BMP280;65308;50.078;14.854;2023-04-08T13:17:36;99685.00;;;9.59
76476;BMP280;65308;50.078;14.854;2023-04-08T13:20:03;99680.69;;;9.12
76476;BMP280;65308;50.078;14.854;2023-04-08T13:22:30;99679.06;;;8.99
76476;BMP280;65308;50.078;14.854;2023-04-08T13:24:59;99679.94;;;9.12
76476;BMP280;65308;50.078;14.854;2023-04-08T13:27:26;99680.44;;;8.87
76476;BMP280;65308;50.078;14.854;2023-04-08T13:29:53;99676.81;;;8.77
76476;BMP280;65308;50.078;14.854;2023-04-08T13:32:20;99680.28;;;9.14
76476;BMP280;65308;50.078;14.854;2023-04-08T13:34:47;99682.00;;;9.73
76476;BMP280;65308;50.078;14.854;2023-04-08T13:37:13;99679.50;;;9.66
76476;BMP280;65308;50.078;14.854;2023-04-08T13:39:40;99681.34;;;10.15
76476;BMP280;65308;50.078;14.854;2023-04-08T13:42:08;99679.47;;;10.70
76476;BMP280;65308;50.078;14.854;2023-04-08T13:44:35;99679.81;;;10.72
76476;BMP280;65308;50.078;14.854;2023-04-08T13:47:01;99675.50;;;11.03
76476;BMP280;65308;50.078;14.854;2023-04-08T13:49:28;99677.31;;;10.52
76476;BMP280;65308;50.078;14.854;2023-04-08T13:51:55;99679.00;;;10.46
76476;BMP280;65308;50.078;14.854;2023-04-08T13:54:22;99677.28;;;9.94
76476;BMP280;65308;50.078;14.854;2023-04-08T13:56:48;99678.88;;;9.91
76476;BMP280;65308;50.078;14.854;2023-04-08T13:59:16;99674.09;;;9.99
76476;BMP280;65308;50.078;14.854;2023-04-08T14:01:43;99670.63;;;10.73
76476;BMP280;65308;50.078;14.854;2023-04-08T14:04:10;99671.72;;;10.46
76476;BMP280;65308;50.078;14.854;2023-04-08T14:06:36;99665.91;;;10.06
76476;BMP280;65308;50.078;14.854;2023-04-08T14:09:03;99668.72;;;9.70
76476;BMP280;65308;50.078;14.854;2023-04-08T14:11:31;99676.84;;;10.11
76476;BMP280;65308;50.078;14.854;2023-04-08T14:13:58;99673.75;;;10.42
76476;BMP280;65308;50.078;14.854;2023-04-08T14:16:26;99670.03;;;10.52
76476;BMP280;65308;50.078;14.854;2023-04-08T14:18:55;99670.03;;;10.23
76476;BMP280;65308;50.078;14.854;2023-04-08T14:21:21;99675.47;;;9.91
76476;BMP280;65308;50.078;14.854;2023-04-08T14:23:51;99671.38;;;9.37
76476;BMP280;65308;50.078;14.854;2023-04-08T14:26:19;99672.72;;;8.92
76476;BMP280;65308;50.078;14.854;2023-04-08T14:28:51;99673.25;;;8.84
76476;BMP280;65308;50.078;14.854;2023-04-08T14:31:20;99684.97;;;8.90